Time;durP1;ratioP1;P1;durP2;ratioP2;P2;SDS_P1;SDS_P2;PMS_P1;PMS_P2;Temp;Humidity;BMP_temperature;BMP_pressure;BME280_temperature;BME280_humidity;BME280_pressure;Samples;Min_cycle;Max_cycle;Signal;HPM_P1;HPM_P2
2021/01/30 00:04:50;;;;;;;7.45;5.80;;;2.50;99.90;;;;;;10005462;29;20489;-91
2021/01/30 00:09:51;;;;;;;10.70;6.50;;;2.50;99.90;;;;;;10002989;29;20058;-91
2021/01/30 00:14:53;;;;;;;;;;;2.40;99.90;;;;;;9951424;29;20054;-91
2021/01/30 00:19:55;;;;;;;14.25;8.93;;;2.40;99.90;;;;;;9995962;29;20015;-91
2021/01/30 00:24:56;;;;;;;13.23;9.18;;;2.20;99.90;;;;;;9965799;29;20055;-91
2021/01/30 00:29:58;;;;;;;10.43;6.95;;;2.10;99.90;;;;;;9980751;29;20503;-91
2021/01/30 00:34:59;;;;;;;7.00;6.30;;;2.10;99.90;;;;;;9980465;29;20506;-91
2021/01/30 00:40:01;;;;;;;11.88;9.40;;;2.00;99.90;;;;;;9965327;29;20058;-91
2021/01/30 00:45:11;;;;;;;8.20;7.38;;;1.90;99.90;;;;;;9978043;29;20666;-93
2021/01/30 00:50:14;;;;;;;9.02;7.53;;;1.90;99.90;;;;;;9989113;29;20145;-92
2021/01/30 00:55:21;;;;;;;10.45;8.98;;;2.00;99.90;;;;;;9959092;29;20063;-92
2021/01/30 01:00:25;;;;;;;13.35;9.52;;;2.00;99.90;;;;;;9973578;29;20388;-91
2021/01/30 01:05:28;;;;;;;11.07;9.55;;;2.00;99.90;;;;;;9974268;29;20062;-92
2021/01/30 01:10:29;;;;;;;14.00;10.45;;;2.00;99.90;;;;;;9995146;29;20413;-91
2021/01/30 01:15:32;;;;;;;15.25;11.73;;;2.00;99.90;;;;;;10011089;29;20486;-91
2021/01/30 01:20:33;;;;;;;14.98;11.35;;;1.90;99.90;;;;;;9996204;29;20121;-92
2021/01/30 01:25:35;;;;;;;17.60;13.45;;;1.70;99.90;;;;;;10010608;29;20069;-92
2021/01/30 01:30:37;;;;;;;16.83;11.90;;;1.80;99.90;;;;;;10010689;29;20061;-92
2021/01/30 01:35:39;;;;;;;20.75;13.50;;;1.70;99.90;;;;;;9992879;29;20058;-91
2021/01/30 01:40:41;;;;;;;16.25;13.52;;;1.70;99.90;;;;;;9972966;29;20059;-91
2021/01/30 01:46:13;;;;;;;23.17;18.17;;;1.60;99.90;;;;;;9972523;29;20066;-92
2021/01/30 01:51:28;;;;;;;22.17;18.52;;;1.50;99.90;;;;;;9957350;29;20625;-91
2021/01/30 01:56:34;;;;;;;28.83;20.52;;;1.50;99.90;;;;;;9971818;29;20062;-92
2021/01/30 02:01:37;;;;;;;27.73;19.75;;;1.40;99.90;;;;;;9972023;29;20070;-92
2021/01/30 02:06:44;;;;;;;30.42;19.80;;;1.30;99.90;;;;;;9971375;29;20093;-92
2021/01/30 02:12:10;;;;;;;25.38;19.63;;;1.30;99.90;;;;;;9971348;29;20068;-92
2021/01/30 02:18:10;;;;;;;27.02;20.25;;;1.20;99.90;;;;;;9971614;29;20058;-91
2021/01/30 02:23:48;;;;;;;28.88;21.25;;;1.20;99.90;;;;;;9971353;29;20059;-91
2021/01/30 02:29:21;;;;;;;23.50;17.00;;;1.20;99.90;;;;;;9986231;29;20062;-91
2021/01/30 02:34:41;;;;;;;20.75;16.27;;;1.10;99.90;;;;;;9986813;29;20062;-91
2021/01/30 02:39:51;;;;;;;17.65;13.73;;;1.00;99.90;;;;;;10005503;29;20152;-91
2021/01/30 02:45:04;;;;;;;17.40;14.38;;;0.90;99.90;;;;;;10008201;29;20058;-91
2021/01/30 02:50:31;;;;;;;15.60;13.32;;;1.10;99.90;;;;;;10008033;29;20057;-91
2021/01/30 02:55:36;;;;;;;14.05;12.20;;;1.00;99.90;;;;;;10007942;29;20061;-91
2021/01/30 03:00:38;;;;;;;15.45;12.68;;;0.90;99.90;;;;;;10007897;29;20083;-91
2021/01/30 03:05:43;;;;;;;15.23;12.45;;;1.00;99.90;;;;;;10006682;29;20485;-92
2021/01/30 03:10:57;;;;;;;15.27;12.50;;;1.00;99.90;;;;;;9991547;29;20061;-90
2021/01/30 03:16:24;;;;;;;13.57;11.52;;;0.90;99.90;;;;;;10008541;29;20083;-91
2021/01/30 03:21:29;;;;;;;12.32;10.73;;;0.90;99.90;;;;;;10007748;29;20061;-91
2021/01/30 03:26:33;;;;;;;13.32;11.57;;;1.00;99.90;;;;;;10007414;29;20057;-91
2021/01/30 03:31:35;;;;;;;13.13;10.98;;;0.90;99.90;;;;;;10006535;29;20126;-92
2021/01/30 03:36:37;;;;;;;14.75;12.13;;;1.00;99.90;;;;;;9991810;29;20061;-91
2021/01/30 03:41:42;;;;;;;13.45;10.32;;;1.00;99.90;;;;;;9991738;29;20145;-91
2021/01/30 03:46:43;;;;;;;14.25;9.80;;;0.80;99.90;;;;;;9991620;29;20136;-91
2021/01/30 03:51:45;;;;;;;10.32;9.23;;;0.90;99.90;;;;;;9977410;29;20149;-91
2021/01/30 03:56:47;;;;;;;12.27;10.38;;;0.90;99.90;;;;;;10006345;29;20058;-91
2021/01/30 04:07:04;;;;;;;13.00;10.13;;;0.80;99.90;;;;;;9983037;29;20067;-93
2021/01/30 04:12:07;;;;;;;11.75;9.52;;;0.80;99.90;;;;;;9953940;29;20570;-94
2021/01/30 04:17:09;;;;;;;11.60;10.30;;;0.80;99.90;;;;;;9952909;29;20059;-93
2021/01/30 04:22:11;;;;;;;12.38;10.52;;;0.70;99.90;;;;;;9942517;29;20058;-93
2021/01/30 04:27:14;;;;;;;10.63;9.35;;;0.80;99.90;;;;;;9960310;29;20054;-93
2021/01/30 04:32:16;;;;;;;12.30;10.13;;;0.70;99.90;;;;;;9974581;29;20084;-93
2021/01/30 04:37:18;;;;;;;13.32;11.48;;;0.70;99.90;;;;;;9959798;29;20085;-93
2021/01/30 04:42:46;;;;;;;13.10;11.18;;;0.70;99.90;;;;;;9974513;29;20054;-94
2021/01/30 04:48:37;;;;;;;10.70;9.60;;;0.70;99.90;;;;;;9988989;29;20687;-93
2021/01/30 04:53:52;;;;;;;11.60;10.40;;;0.60;99.90;;;;;;9989680;29;20150;-93
2021/01/30 04:59:13;;;;;;;11.80;9.57;;;0.60;99.90;;;;;;9990160;29;20410;-93
2021/01/30 05:04:25;;;;;;;10.00;8.65;;;0.60;99.90;;;;;;9973816;29;20060;-91
2021/01/30 05:09:40;;;;;;;10.00;8.80;;;0.60;99.90;;;;;;9958686;29;20082;-92
2021/01/30 05:15:02;;;;;;;9.20;8.20;;;0.50;99.90;;;;;;9974652;29;20054;-91
2021/01/30 05:20:09;;;;;;;9.13;7.90;;;0.60;99.90;;;;;;9973442;29;20145;-92
2021/01/30 05:25:16;;;;;;;12.02;10.07;;;0.60;99.90;;;;;;9973760;29;20059;-93
2021/01/30 05:30:48;;;;;;;9.68;8.68;;;0.60;99.90;;;;;;9988257;29;20515;-92
2021/01/30 05:36:02;;;;;;;10.70;9.60;;;0.50;99.90;;;;;;9974296;29;20069;-92
2021/01/30 05:41:46;;;;;;;10.50;9.15;;;0.30;99.90;;;;;;9972573;29;20579;-92
2021/01/30 05:46:51;;;;;;;8.77;7.60;;;0.30;99.90;;;;;;9960628;29;20118;-92
2021/01/30 05:52:05;;;;;;;9.07;8.18;;;0.20;99.90;;;;;;9973837;29;20066;-92
2021/01/30 05:57:06;;;;;;;8.32;7.40;;;0.30;99.90;;;;;;9957375;29;20137;-91
2021/01/30 06:02:30;;;;;;;10.50;8.88;;;0.30;99.90;;;;;;9941859;29;20525;-92
2021/01/30 06:07:36;;;;;;;10.55;8.07;;;0.30;99.90;;;;;;9974171;29;20070;-91
2021/01/30 06:12:37;;;;;;;10.68;8.27;;;0.40;99.90;;;;;;9972038;29;20143;-92
2021/01/30 06:17:39;;;;;;;11.05;9.35;;;0.50;99.90;;;;;;9956453;29;20500;-92
2021/01/30 06:22:41;;;;;;;9.57;8.05;;;0.50;99.90;;;;;;9956198;29;20058;-92
2021/01/30 06:27:43;;;;;;;9.65;8.65;;;0.40;99.90;;;;;;9941306;29;20495;-92
2021/01/30 06:32:48;;;;;;;11.68;9.25;;;0.40;99.90;;;;;;9970872;29;20153;-92
2021/01/30 06:38:05;;;;;;;10.07;8.30;;;0.40;99.90;;;;;;9985911;29;20054;-94
2021/01/30 06:43:17;;;;;;;9.18;7.50;;;0.40;99.90;;;;;;9972068;29;20058;-93
2021/01/30 06:48:33;;;;;;;8.37;7.30;;;0.40;99.90;;;;;;9970778;29;20086;-94
2021/01/30 06:53:35;;;;;;;8.95;6.88;;;0.40;99.90;;;;;;9985460;29;20066;-94
2021/01/30 06:58:42;;;;;;;8.43;7.28;;;0.40;99.90;;;;;;9939939;29;20061;-92
2021/01/30 07:04:14;;;;;;;7.78;6.78;;;0.40;99.90;;;;;;9985010;29;20419;-93
2021/01/30 07:09:42;;;;;;;6.07;4.82;;;0.40;99.90;;;;;;9971465;29;20137;-93
2021/01/30 07:15:09;;;;;;;7.47;4.88;;;0.40;99.90;;;;;;9970232;29;20086;-92
2021/01/30 07:20:34;;;;;;;5.90;5.30;;;0.40;99.90;;;;;;9969548;29;20410;-92
2021/01/30 07:26:03;;;;;;;6.20;4.82;;;0.40;99.90;;;;;;9969900;29;20062;-93
2021/01/30 07:31:31;;;;;;;5.32;4.72;;;0.40;99.90;;;;;;9986125;29;20054;-91
2021/01/30 07:36:45;;;;;;;8.48;5.43;;;0.40;99.90;;;;;;9983704;29;20491;-92
2021/01/30 07:41:58;;;;;;;5.10;4.47;;;0.40;99.90;;;;;;9985000;29;20502;-92
2021/01/30 07:47:16;;;;;;;;;;;0.30;99.90;;;;;;9985186;29;20149;-92
2021/01/30 07:52:26;;;;;;;8.13;5.85;;;0.30;99.90;;;;;;9968565;29;20443;-90
2021/01/30 07:58:14;;;;;;;6.75;5.60;;;0.30;99.90;;;;;;9974096;29;20050;-92
2021/01/30 08:03:41;;;;;;;5.72;5.13;;;0.40;99.90;;;;;;9990831;29;20542;-92
2021/01/30 08:09:05;;;;;;;7.68;5.90;;;0.40;99.90;;;;;;9976092;29;20062;-92
2021/01/30 08:14:41;;;;;;;6.88;5.50;;;0.40;99.90;;;;;;9990757;29;20081;-92
2021/01/30 08:20:14;;;;;;;7.78;5.35;;;0.30;99.90;;;;;;9975696;29;20062;-96
2021/01/30 08:25:38;;;;;;;;;;;0.30;99.90;;;;;;9991214;29;20514;-94
2021/01/30 08:30:42;;;;;;;9.23;6.40;;;0.40;99.90;;;;;;9968857;29;19925;-94
2021/01/30 08:35:55;;;;;;;8.02;6.50;;;0.30;99.90;;;;;;9945615;29;20065;-95
2021/01/30 08:41:27;;;;;;;7.20;6.43;;;0.40;99.90;;;;;;9974604;29;20050;-95
2021/01/30 08:46:38;;;;;;;7.60;5.53;;;0.40;99.90;;;;;;9974031;29;20422;-94
2021/01/30 08:51:46;;;;;;;7.77;7.00;;;0.40;99.90;;;;;;9989742;29;20065;-95
2021/01/30 08:56:51;;;;;;;8.05;6.90;;;0.50;99.90;;;;;;9974261;29;20062;-92
2021/01/30 09:01:52;;;;;;;7.32;6.10;;;0.70;99.90;;;;;;9973585;29;20133;-92
2021/01/30 09:06:56;;;;;;;8.10;6.85;;;0.70;99.90;;;;;;9942779;29;20062;-91
2021/01/30 09:12:02;;;;;;;8.52;7.07;;;0.70;99.90;;;;;;9944101;29;20215;-91
2021/01/30 09:17:30;;;;;;;8.77;7.22;;;0.80;99.90;;;;;;9973381;29;20065;-93
2021/01/30 09:22:35;;;;;;;7.32;6.57;;;0.70;99.90;;;;;;9973393;29;20066;-91
2021/01/30 09:27:59;;;;;;;8.68;6.85;;;0.80;99.90;;;;;;9972675;29;20521;-91
2021/01/30 09:33:09;;;;;;;7.38;6.60;;;0.70;99.90;;;;;;9987769;29;20062;-93
2021/01/30 09:38:25;;;;;;;7.70;6.72;;;0.70;99.90;;;;;;9972521;29;20051;-93
2021/01/30 09:43:27;;;;;;;7.50;6.55;;;0.90;99.90;;;;;;9973131;29;20225;-92
2021/01/30 09:48:29;;;;;;;8.10;6.50;;;0.90;99.90;;;;;;9944628;29;20065;-92
2021/01/30 09:53:36;;;;;;;;;;;1.00;99.90;;;;;;9942876;29;20145;-92
2021/01/30 09:58:39;;;;;;;8.52;7.25;;;1.00;99.90;;;;;;9971438;29;19924;-93
2021/01/30 12:22:21;;;;;;;8.50;7.20;;;2.00;99.90;;;;;;10015319;29;20499;-92
2021/01/30 12:27:24;;;;;;;7.55;6.82;;;2.00;99.90;;;;;;9938376;29;20070;-94
2021/01/30 12:32:25;;;;;;;10.63;7.65;;;2.00;99.90;;;;;;9983321;29;20054;-93
2021/01/30 12:37:28;;;;;;;9.32;7.70;;;2.00;99.90;;;;;;9968263;29;20082;-93
2021/01/30 12:42:30;;;;;;;10.43;8.02;;;2.20;99.90;;;;;;9970903;29;20050;-93
2021/01/30 12:47:32;;;;;;;;;;;2.30;99.90;;;;;;9975049;29;20058;-93
2021/01/30 12:52:42;;;;;;;10.48;9.13;;;2.20;99.90;;;;;;9961543;29;19932;-94
2021/01/30 12:57:44;;;;;;;9.07;7.75;;;2.10;99.90;;;;;;9944060;29;20054;-93
2021/01/30 13:02:46;;;;;;;;;;;2.00;99.90;;;;;;9974791;29;20152;-94
2021/01/30 13:07:49;;;;;;;9.68;8.48;;;1.90;99.90;;;;;;9937094;29;19931;-95
2021/01/30 13:12:50;;;;;;;10.48;8.52;;;2.00;99.90;;;;;;9921679;29;20093;-94
2021/01/30 13:17:52;;;;;;;;;;;2.00;99.90;;;;;;9930951;29;20069;-94
2021/01/30 13:22:55;;;;;;;9.32;7.10;;;1.90;99.90;;;;;;9963382;29;19925;-93
2021/01/30 13:27:57;;;;;;;9.23;7.65;;;1.90;99.90;;;;;;9943644;29;20115;-93
2021/01/30 13:32:58;;;;;;;9.35;7.90;;;1.90;99.90;;;;;;9973423;29;20150;-94
2021/01/30 13:38:01;;;;;;;8.90;7.70;;;2.00;99.90;;;;;;9942960;29;20050;-94
2021/01/30 13:43:04;;;;;;;9.35;7.82;;;2.00;99.90;;;;;;9987734;29;20086;-93
2021/01/30 13:48:06;;;;;;;11.48;8.32;;;2.00;99.90;;;;;;9943032;29;20060;-93
2021/01/30 13:53:07;;;;;;;8.40;7.55;;;2.00;99.90;;;;;;9932552;29;20524;-94
2021/01/30 13:58:09;;;;;;;10.90;8.27;;;2.10;99.90;;;;;;9934314;29;20138;-95
2021/01/30 15:18:58;;;;;;;12.48;8.70;;;2.00;99.90;;;;;;12981719;22;794989;-94
2021/01/30 15:24:00;;;;;;;;;;;2.10;99.90;;;;;;12966976;22;20039;-95
2021/01/30 15:29:01;;;;;;;12.93;9.02;;;2.00;99.90;;;;;;12943139;22;19915;-94
2021/01/30 15:34:03;;;;;;;10.75;8.00;;;2.10;99.90;;;;;;12941409;22;20074;-95
2021/01/30 15:39:05;;;;;;;12.88;8.68;;;1.90;99.90;;;;;;12916816;22;20103;-94
2021/01/30 15:44:07;;;;;;;10.70;8.50;;;1.90;99.90;;;;;;12916099;22;20039;-93
2021/01/30 15:49:08;;;;;;;10.82;9.20;;;1.80;99.90;;;;;;12966234;22;20047;-94
2021/01/30 15:54:09;;;;;;;13.48;8.65;;;1.80;99.90;;;;;;12915661;22;20098;-93
2021/01/30 15:59:11;;;;;;;10.38;7.88;;;1.70;99.90;;;;;;12940008;22;20046;-96
2021/01/30 17:02:42;;;;;;;13.35;7.50;;;1.30;99.90;;;;;;13099360;22;20023;-94
2021/01/30 17:07:43;;;;;;;14.00;8.13;;;1.20;99.90;;;;;;12901810;23;20020;-95
2021/01/30 17:12:45;;;;;;;13.32;9.82;;;1.20;99.90;;;;;;12876295;23;20454;-95
2021/01/30 17:17:46;;;;;;;13.15;9.77;;;1.20;99.90;;;;;;12875685;23;20070;-94
2021/01/30 17:22:48;;;;;;;;;;;1.10;99.90;;;;;;12876532;23;20017;-95
2021/01/30 17:27:49;;;;;;;13.65;9.55;;;1.10;99.90;;;;;;12876144;23;19982;-95
2021/01/30 17:32:57;;;;;;;13.00;10.55;;;1.10;99.90;;;;;;12879018;23;20026;-95
2021/01/30 17:38:09;;;;;;;13.05;9.18;;;1.00;99.90;;;;;;12902503;23;20020;-94
2021/01/30 17:43:13;;;;;;;16.35;10.00;;;1.00;99.90;;;;;;12901018;23;20468;-94
2021/01/30 17:48:14;;;;;;;15.02;10.38;;;1.00;99.90;;;;;;12901212;23;20020;-95
2021/01/30 17:53:17;;;;;;;16.63;11.50;;;0.90;99.90;;;;;;12876764;23;20031;-94
2021/01/30 17:58:18;;;;;;;21.20;12.73;;;0.80;99.90;;;;;;12900545;23;20457;-94
2021/01/30 18:03:20;;;;;;;15.32;11.48;;;0.80;99.90;;;;;;12875102;22;20386;-94
2021/01/30 18:08:21;;;;;;;18.25;13.27;;;0.80;99.90;;;;;;12875878;23;20021;-95
2021/01/30 18:13:23;;;;;;;;;;;0.70;99.90;;;;;;12900399;23;20024;-94
2021/01/30 18:18:24;;;;;;;17.58;12.13;;;0.60;99.90;;;;;;12900140;23;19916;-94
2021/01/30 18:23:27;;;;;;;19.10;12.88;;;0.50;99.90;;;;;;12875659;23;20016;-94
2021/01/30 18:28:29;;;;;;;21.85;13.63;;;0.50;99.90;;;;;;12875595;23;20116;-94
2021/01/30 18:33:31;;;;;;;19.98;12.55;;;0.50;99.90;;;;;;12899781;23;20024;-94
2021/01/30 18:38:32;;;;;;;;;;;0.50;99.90;;;;;;12876030;23;20051;-95
2021/01/30 18:43:33;;;;;;;21.80;14.43;;;0.40;99.90;;;;;;12900552;23;19990;-94
2021/01/30 18:48:35;;;;;;;19.88;14.52;;;0.40;99.90;;;;;;12877695;23;20449;-94
2021/01/30 18:53:37;;;;;;;22.33;14.05;;;0.40;99.90;;;;;;12904028;23;20020;-94
2021/01/30 18:58:38;;;;;;;23.65;15.93;;;0.40;99.90;;;;;;12903592;23;20020;-94
2021/01/30 19:03:40;;;;;;;;;;;0.30;99.90;;;;;;12855525;22;20021;-95
2021/01/30 19:08:53;;;;;;;23.70;14.95;;;0.30;99.90;;;;;;12881144;23;20236;-94
2021/01/30 19:13:54;;;;;;;20.20;13.45;;;0.30;99.90;;;;;;12903207;23;20353;-93
2021/01/30 19:18:55;;;;;;;;;;;0.30;99.90;;;;;;12878323;23;20445;-93
2021/01/30 19:23:57;;;;;;;27.10;17.00;;;0.20;99.90;;;;;;12905423;23;20017;-94
2021/01/30 19:28:59;;;;;;;24.83;16.30;;;0.10;99.90;;;;;;12903902;23;20020;-94
2021/01/30 19:34:00;;;;;;;25.77;16.45;;;0.10;99.90;;;;;;12879486;23;20035;-95
2021/01/30 19:39:02;;;;;;;24.52;15.85;;;0.10;99.90;;;;;;12854291;23;20020;-94
2021/01/30 19:44:05;;;;;;;25.23;16.33;;;0.10;99.90;;;;;;12903071;23;20027;-95
2021/01/30 19:49:07;;;;;;;29.05;17.45;;;0.00;99.90;;;;;;12878194;23;20024;-94
2021/01/30 19:54:08;;;;;;;25.98;16.02;;;0.00;99.90;;;;;;12902793;23;20024;-94
2021/01/30 19:59:10;;;;;;;22.90;15.68;;;-0.10;99.90;;;;;;12878460;23;20016;-95
2021/01/30 20:04:11;;;;;;;21.50;15.18;;;-0.10;99.90;;;;;;12902277;23;20016;-95
2021/01/30 20:09:15;;;;;;;26.38;16.75;;;-0.10;99.90;;;;;;12902916;23;20056;-95
2021/01/30 20:14:17;;;;;;;30.08;17.17;;;-0.20;99.90;;;;;;12902338;23;20044;-95
2021/01/30 20:19:18;;;;;;;27.23;16.48;;;-0.20;99.90;;;;;;12877572;23;20039;-95
2021/01/30 20:24:23;;;;;;;25.48;15.43;;;-0.30;99.90;;;;;;12881015;23;20032;-95
2021/01/30 20:29:29;;;;;;;29.13;18.30;;;-0.40;99.90;;;;;;12883460;23;20024;-95
2021/01/30 20:34:30;;;;;;;26.77;17.65;;;-0.40;99.90;;;;;;12878124;23;20024;-94
2021/01/30 20:39:32;;;;;;;27.67;16.58;;;-0.50;99.90;;;;;;12876351;23;20465;-95
2021/01/30 20:44:33;;;;;;;26.25;17.15;;;-0.50;99.90;;;;;;12877931;23;20028;-95
2021/01/30 20:49:35;;;;;;;23.70;15.90;;;-0.50;99.90;;;;;;12902418;23;20355;-96
2021/01/30 20:54:36;;;;;;;25.85;16.13;;;-0.60;99.90;;;;;;12879155;23;20031;-95
2021/01/30 20:59:38;;;;;;;28.15;17.30;;;-0.60;99.90;;;;;;12904545;23;20055;-95
2021/01/30 21:04:39;;;;;;;;;;;-0.70;99.90;;;;;;12879851;22;20027;-95
2021/01/30 21:09:41;;;;;;;28.92;15.95;;;-0.70;99.90;;;;;;12929090;23;19958;-95
2021/01/30 21:14:42;;;;;;;29.23;18.30;;;-0.70;99.90;;;;;;12854441;23;20058;-95
2021/01/30 21:19:44;;;;;;;27.02;16.58;;;-0.70;99.90;;;;;;12885462;23;20016;-95
2021/01/30 21:24:45;;;;;;;;;;;-0.80;99.90;;;;;;12883705;23;20020;-95
2021/01/30 21:29:46;;;;;;;29.35;16.80;;;-0.70;99.90;;;;;;12877494;23;19920;-95
2021/01/30 21:34:48;;;;;;;25.48;15.35;;;-0.80;99.90;;;;;;12901247;23;20024;-95
2021/01/30 21:39:49;;;;;;;26.42;16.17;;;-0.80;99.90;;;;;;12852264;23;20066;-94
2021/01/30 21:44:53;;;;;;;26.05;16.75;;;-0.90;99.90;;;;;;12901414;23;20027;-94
2021/01/30 21:49:55;;;;;;;26.80;16.40;;;-0.90;99.90;;;;;;12900766;23;20519;-95
2021/01/30 21:54:56;;;;;;;28.00;16.83;;;-0.80;99.90;;;;;;12900571;23;20024;-94
2021/01/30 21:59:58;;;;;;;25.80;16.90;;;-0.90;99.90;;;;;;12876197;23;20031;-94
2021/01/30 22:04:59;;;;;;;28.45;17.63;;;-1.00;99.90;;;;;;12900492;23;20490;-94
2021/01/30 22:10:01;;;;;;;24.10;15.63;;;-1.00;99.90;;;;;;12875711;23;20031;-94
2021/01/30 22:15:04;;;;;;;23.58;14.65;;;-1.10;99.90;;;;;;12901433;23;20028;-95
2021/01/30 22:20:06;;;;;;;28.25;16.83;;;-1.10;99.90;;;;;;12963141;22;20019;-92
2021/01/30 22:25:09;;;;;;;32.60;18.00;;;-1.10;99.90;;;;;;12967150;22;20027;-92
2021/01/30 22:30:12;;;;;;;24.35;14.88;;;-1.20;99.90;;;;;;12993230;22;20023;-92
2021/01/30 22:35:13;;;;;;;28.02;16.05;;;-1.20;99.90;;;;;;12992802;22;20066;-92
2021/01/30 22:40:16;;;;;;;29.17;17.92;;;-1.20;99.90;;;;;;12967821;22;20020;-92
2021/01/30 22:45:19;;;;;;;28.85;16.58;;;-1.20;99.90;;;;;;12993827;22;20516;-92
2021/01/30 22:50:21;;;;;;;27.98;16.48;;;-1.30;99.90;;;;;;12992960;22;20060;-92
2021/01/30 22:55:22;;;;;;;27.83;17.10;;;-1.30;99.90;;;;;;12991853;22;20023;-91
2021/01/30 23:00:24;;;;;;;;;;;-1.30;99.90;;;;;;12967203;22;20019;-91
2021/01/30 23:05:25;;;;;;;26.05;15.38;;;-1.40;99.90;;;;;;12991206;22;19922;-91
2021/01/30 23:10:27;;;;;;;28.40;16.17;;;-1.40;99.90;;;;;;12965312;22;20106;-91
2021/01/30 23:15:33;;;;;;;27.40;17.38;;;-1.50;99.90;;;;;;12965688;22;20102;-91
2021/01/30 23:20:35;;;;;;;26.00;16.63;;;-1.50;99.90;;;;;;12963556;22;20044;-90
2021/01/30 23:25:39;;;;;;;27.88;16.92;;;-1.60;99.90;;;;;;12990279;22;20103;-91
2021/01/30 23:30:49;;;;;;;25.77;15.45;;;-1.60;99.90;;;;;;12992687;22;20054;-91
2021/01/30 23:35:51;;;;;;;28.60;17.23;;;-1.60;99.90;;;;;;12990407;22;20047;-91
2021/01/30 23:40:54;;;;;;;30.10;18.45;;;-1.60;99.90;;;;;;12991326;22;20034;-91
2021/01/30 23:45:56;;;;;;;26.10;16.77;;;-1.70;99.90;;;;;;12990938;22;20020;-93
2021/01/30 23:50:57;;;;;;;28.08;17.63;;;-1.70;99.90;;;;;;12990093;22;20043;-92
2021/01/30 23:55:59;;;;;;;29.67;17.83;;;-1.70;99.90;;;;;;12965954;22;20062;-92
